Time;durP1;ratioP1;P1;durP2;ratioP2;P2;SDS_P1;SDS_P2;PMS_P1;PMS_P2;Temp;Humidity;BMP_temperature;BMP_pressure;BME280_temperature;BME280_humidity;BME280_pressure;Samples;Min_cycle;Max_cycle;Signal;HPM_P1;HPM_P2
2022/03/10 00:00:29;;;;;;;;;;;6.10;26.90;;;;;;5096109;28;19919;-58
2022/03/10 00:02:56;;;;;;;;;;;6.10;26.70;;;;;;5096226;28;19927;-61
2022/03/10 00:05:22;;;;;;;;;;;6.10;27.40;;;;;;5095750;28;20344;-60
2022/03/10 00:07:49;;;;;;;;;;;6.10;27.10;;;;;;5096043;28;19923;-58
2022/03/10 00:10:15;;;;;;;;;;;6.10;27.10;;;;;;5095926;28;19923;-61
2022/03/10 00:12:51;;;;;;;;;;;6.10;26.70;;;;;;5096006;28;19969;-61
2022/03/10 00:15:20;;;;;;;;;;;6.00;26.70;;;;;;5096089;28;19946;-60
2022/03/10 00:17:47;;;;;;;;;;;6.00;26.00;;;;;;5095490;28;20003;-60
2022/03/10 00:20:13;;;;;;;;;;;6.00;26.40;;;;;;5095949;28;19978;-60
2022/03/10 00:22:44;;;;;;;;;;;6.10;27.40;;;;;;5095733;28;19990;-59
2022/03/10 00:25:10;;;;;;;;;;;6.00;26.70;;;;;;5095863;28;19974;-61
2022/03/10 00:27:37;;;;;;;;;;;6.00;27.20;;;;;;5095242;28;19924;-61
2022/03/10 00:30:04;;;;;;;;;;;6.00;27.30;;;;;;5096050;28;19919;-60
2022/03/10 00:32:32;;;;;;;;;;;6.10;28.60;;;;;;5095167;28;19924;-61
2022/03/10 00:34:59;;;;;;;;;;;6.20;28.50;;;;;;5095682;28;20443;-60
2022/03/10 00:37:25;;;;;;;;;;;6.20;29.00;;;;;;5095185;28;19920;-59
2022/03/10 00:39:52;;;;;;;;;;;6.30;29.00;;;;;;5095128;28;20370;-60
2022/03/10 00:42:18;;;;;;;;;;;6.30;29.50;;;;;;5095307;28;19920;-61
2022/03/10 00:44:45;;;;;;;;;;;6.30;29.30;;;;;;5095006;28;20339;-61
2022/03/10 00:47:11;;;;;;;;;;;6.40;44.60;;;;;;5094954;28;19920;-61
2022/03/10 00:49:39;;;;;;;;;;;6.40;30.20;;;;;;5095278;28;19920;-61
2022/03/10 00:52:06;;;;;;;;;;;6.50;30.10;;;;;;5095282;28;19924;-58
2022/03/10 00:54:32;;;;;;;;;;;6.50;30.90;;;;;;5095184;28;19920;-58
2022/03/10 00:56:59;;;;;;;;;;;6.50;31.10;;;;;;5094770;28;19920;-61
2022/03/10 00:59:25;;;;;;;;;;;6.60;31.30;;;;;;5094747;28;20343;-60
2022/03/10 01:01:52;;;;;;;;;;;6.60;32.10;;;;;;5095026;28;20369;-61
2022/03/10 01:04:18;;;;;;;;;;;6.70;32.70;;;;;;5094580;28;19950;-61
2022/03/10 01:06:46;;;;;;;;;;;6.70;33.10;;;;;;5094845;28;19927;-59
2022/03/10 01:09:12;;;;;;;;;;;6.70;32.70;;;;;;5095003;28;19924;-60
2022/03/10 01:11:39;;;;;;;;;;;6.70;33.00;;;;;;5094755;28;19923;-61
2022/03/10 01:14:05;;;;;;;;;;;6.70;32.50;;;;;;5094843;28;19962;-61
2022/03/10 01:16:32;;;;;;;;;;;6.70;32.60;;;;;;5094439;28;19920;-61
2022/03/10 01:18:58;;;;;;;;;;;6.60;32.90;;;;;;5094847;28;19920;-61
2022/03/10 01:21:25;;;;;;;;;;;6.50;31.90;;;;;;5086516;28;19992;-61
2022/03/10 01:23:53;;;;;;;;;;;6.50;31.20;;;;;;5094460;28;19949;-61
2022/03/10 01:26:19;;;;;;;;;;;6.40;30.80;;;;;;5094230;28;19988;-61
2022/03/10 01:28:46;;;;;;;;;;;6.30;30.80;;;;;;5094728;28;19969;-61
2022/03/10 01:31:12;;;;;;;;;;;6.30;30.00;;;;;;5094631;28;19920;-61
2022/03/10 01:33:39;;;;;;;;;;;6.30;30.50;;;;;;5094230;28;19923;-60
2022/03/10 01:36:05;;;;;;;;;;;6.30;30.50;;;;;;5094250;28;19920;-60
2022/03/10 01:38:32;;;;;;;;;;;6.30;31.10;;;;;;5094225;28;20344;-59
2022/03/10 01:41:00;;;;;;;;;;;6.30;30.90;;;;;;5094346;28;19966;-59
2022/03/10 01:43:26;;;;;;;;;;;6.30;45.90;;;;;;5093992;28;20451;-61
2022/03/10 01:45:53;;;;;;;;;;;6.20;30.50;;;;;;5094103;28;19973;-61
2022/03/10 01:48:19;;;;;;;;;;;6.10;29.70;;;;;;5094063;28;19920;-61
2022/03/10 01:50:46;;;;;;;;;;;6.10;29.70;;;;;;5094167;28;20532;-60
2022/03/10 01:53:12;;;;;;;;;;;6.00;29.10;;;;;;5093918;28;19927;-58
2022/03/10 01:55:39;;;;;;;;;;;6.00;28.60;;;;;;5093603;28;19920;-58
2022/03/10 01:58:07;;;;;;;;;;;6.00;28.60;;;;;;5093770;28;19957;-58
2022/03/10 02:00:33;;;;;;;;;;;5.90;28.50;;;;;;5093756;28;20436;-58
2022/03/10 02:03:00;;;;;;;;;;;6.00;29.30;;;;;;5093702;28;19920;-58
2022/03/10 02:05:30;;;;;;;;;;;6.00;29.10;;;;;;5093529;28;19920;-59
2022/03/10 02:10:42;;;;;;;;;;;5.90;29.30;;;;;;5093341;28;20320;-58
2022/03/10 02:13:09;;;;;;;;;;;5.80;28.30;;;;;;5093957;28;19973;-58
2022/03/10 02:18:20;;;;;;;;;;;5.60;27.50;;;;;;5093641;28;19942;-58
2022/03/10 02:20:47;;;;;;;;;;;5.60;27.50;;;;;;5093769;28;20005;-58
2022/03/10 02:23:15;;;;;;;;;;;5.50;27.20;;;;;;5093553;28;19950;-59
2022/03/10 02:25:41;;;;;;;;;;;5.50;27.50;;;;;;5093738;28;19920;-58
2022/03/10 02:28:08;;;;;;;;;;;5.40;28.90;;;;;;5093290;28;20377;-57
2022/03/10 02:30:35;;;;;;;;;;;5.30;29.60;;;;;;5093611;28;20382;-59
2022/03/10 02:33:02;;;;;;;;;;;5.20;29.30;;;;;;5092934;28;19923;-58
2022/03/10 02:35:28;;;;;;;;;;;5.20;30.10;;;;;;5093472;28;19924;-58
2022/03/10 02:37:56;;;;;;;;;;;5.20;29.70;;;;;;5093140;28;20324;-58
2022/03/10 02:40:23;;;;;;;;;;;5.20;29.80;;;;;;5093787;28;19963;-58
2022/03/10 02:42:50;;;;;;;;;;;5.20;35.10;;;;;;5093919;28;20320;-59
2022/03/10 02:45:16;;;;;;;;;;;5.20;29.40;;;;;;5094824;28;19920;-59
2022/03/10 02:47:43;;;;;;;;;;;5.10;29.00;;;;;;5093634;28;19920;-59
2022/03/10 02:50:10;;;;;;;;;;;5.10;29.00;;;;;;5093901;28;19924;-58
2022/03/10 02:52:37;;;;;;;;;;;5.10;29.90;;;;;;5093782;28;19973;-60
2022/03/10 02:55:04;;;;;;;;;;;5.10;29.20;;;;;;5093146;28;20435;-59
2022/03/10 02:57:32;;;;;;;;;;;5.10;29.10;;;;;;5093666;28;19920;-59
2022/03/10 02:59:59;;;;;;;;;;;5.10;28.60;;;;;;5094133;28;20324;-59
2022/03/10 03:02:26;;;;;;;;;;;5.10;29.20;;;;;;5094092;28;20336;-60
2022/03/10 03:04:53;;;;;;;;;;;5.20;29.30;;;;;;5094740;28;19924;-59
2022/03/10 03:07:19;;;;;;;;;;;5.20;29.60;;;;;;5096182;28;19920;-60
2022/03/10 03:09:46;;;;;;;;;;;5.30;29.90;;;;;;5095312;28;19961;-59
2022/03/10 03:12:12;;;;;;;;;;;5.30;29.90;;;;;;5094629;28;19952;-59
2022/03/10 03:14:40;;;;;;;;;;;5.30;30.00;;;;;;5094427;28;19950;-58
2022/03/10 03:17:06;;;;;;;;;;;5.20;29.90;;;;;;5091836;28;19981;-58
2022/03/10 03:19:33;;;;;;;;;;;5.20;30.00;;;;;;5092712;28;19973;-58
2022/03/10 03:21:59;;;;;;;;;;;5.20;29.40;;;;;;5092632;28;19965;-58
2022/03/10 03:24:26;;;;;;;;;;;5.10;29.20;;;;;;5092588;28;19920;-58
2022/03/10 03:26:53;;;;;;;;;;;5.10;29.20;;;;;;5091995;28;19920;-58
2022/03/10 03:29:19;;;;;;;;;;;5.10;29.00;;;;;;5092529;28;20424;-58
2022/03/10 03:31:47;;;;;;;;;;;5.10;29.00;;;;;;5092431;28;19920;-58
2022/03/10 03:34:14;;;;;;;;;;;5.10;29.10;;;;;;5092165;28;20435;-59
2022/03/10 03:36:40;;;;;;;;;;;5.10;29.00;;;;;;5092194;28;19966;-59
2022/03/10 03:39:07;;;;;;;;;;;5.00;28.50;;;;;;5092179;28;19923;-59
2022/03/10 03:41:34;;;;;;;;;;;5.00;28.30;;;;;;5092403;28;19920;-58
2022/03/10 03:44:00;;;;;;;;;;;5.00;28.10;;;;;;5092090;28;19936;-59
2022/03/10 03:46:27;;;;;;;;;;;4.90;28.30;;;;;;5092178;28;19923;-59
2022/03/10 03:48:55;;;;;;;;;;;4.90;27.40;;;;;;5092344;28;20320;-58
2022/03/10 03:51:22;;;;;;;;;;;4.90;27.50;;;;;;5092299;28;20356;-58
2022/03/10 03:53:48;;;;;;;;;;;4.90;27.60;;;;;;5092302;28;19948;-59
2022/03/10 03:56:15;;;;;;;;;;;4.90;27.40;;;;;;5091669;28;19924;-59
2022/03/10 03:58:41;;;;;;;;;;;4.80;27.50;;;;;;5092345;28;19920;-59
2022/03/10 04:01:08;;;;;;;;;;;4.80;28.10;;;;;;5091921;28;19920;-58
2022/03/10 04:03:34;;;;;;;;;;;4.80;27.60;;;;;;5092270;28;19969;-58
2022/03/10 04:06:02;;;;;;;;;;;4.80;27.90;;;;;;5091758;28;19920;-59
2022/03/10 04:08:29;;;;;;;;;;;4.80;28.10;;;;;;5092043;28;19920;-59
2022/03/10 04:10:55;;;;;;;;;;;4.80;27.60;;;;;;5092211;28;19924;-59
2022/03/10 04:13:22;;;;;;;;;;;4.90;28.10;;;;;;5091856;28;19965;-60
2022/03/10 04:15:49;;;;;;;;;;;4.90;28.70;;;;;;5091889;28;20382;-59
2022/03/10 04:18:16;;;;;;;;;;;4.90;28.30;;;;;;5091684;28;19926;-57
2022/03/10 04:20:43;;;;;;;;;;;5.00;28.80;;;;;;5092083;28;19927;-59
2022/03/10 04:23:11;;;;;;;;;;;5.00;29.20;;;;;;5091647;28;19920;-59
2022/03/10 04:25:38;;;;;;;;;;;5.10;29.00;;;;;;5092084;28;19946;-60
2022/03/10 04:28:04;;;;;;;;;;;5.10;28.90;;;;;;5091796;28;19924;-59
2022/03/10 04:30:32;;;;;;;;;;;5.20;29.60;;;;;;5092174;28;19920;-59
2022/03/10 04:32:59;;;;;;;;;;;5.20;29.90;;;;;;5091624;28;19974;-59
2022/03/10 04:35:26;;;;;;;;;;;5.20;30.00;;;;;;5092044;28;19935;-59
2022/03/10 04:37:53;;;;;;;;;;;5.10;29.20;;;;;;5091578;28;19920;-58
2022/03/10 04:40:21;;;;;;;;;;;5.10;29.20;;;;;;5093552;28;20372;-59
2022/03/10 04:42:49;;;;;;;;;;;5.00;29.00;;;;;;5095410;28;19973;-59
2022/03/10 04:45:16;;;;;;;;;;;5.00;28.70;;;;;;5095465;28;19965;-59
2022/03/10 04:47:42;;;;;;;;;;;4.90;28.20;;;;;;5095105;28;19973;-59
2022/03/10 04:50:10;;;;;;;;;;;4.80;28.00;;;;;;5095139;28;19920;-60
2022/03/10 04:52:37;;;;;;;;;;;4.80;28.50;;;;;;5095039;28;20370;-60
2022/03/10 04:55:04;;;;;;;;;;;4.90;28.10;;;;;;5094824;28;19950;-59
2022/03/10 04:57:31;;;;;;;;;;;4.80;28.00;;;;;;5095057;28;19997;-59
2022/03/10 04:59:58;;;;;;;;;;;4.80;28.20;;;;;;5095096;28;20428;-60
2022/03/10 05:02:24;;;;;;;;;;;4.80;28.00;;;;;;5094945;28;19920;-59
2022/03/10 05:04:51;;;;;;;;;;;4.90;28.50;;;;;;5095181;28;20271;-59
2022/03/10 05:07:17;;;;;;;;;;;4.90;28.20;;;;;;5094521;28;19920;-59
2022/03/10 05:09:44;;;;;;;;;;;4.80;28.00;;;;;;5095395;28;20328;-58
2022/03/10 05:12:11;;;;;;;;;;;4.90;28.50;;;;;;5094813;28;19965;-59
2022/03/10 05:14:39;;;;;;;;;;;4.80;28.20;;;;;;5094892;28;19943;-58
2022/03/10 05:17:05;;;;;;;;;;;4.80;28.50;;;;;;5094158;28;19977;-59
2022/03/10 05:19:32;;;;;;;;;;;4.70;27.70;;;;;;5094663;28;19920;-60
2022/03/10 05:21:58;;;;;;;;;;;4.70;28.00;;;;;;5094774;28;19920;-55
2022/03/10 05:24:25;;;;;;;;;;;4.70;27.70;;;;;;5094892;28;19924;-56
2022/03/10 05:26:51;;;;;;;;;;;4.60;26.90;;;;;;5094778;28;19920;-58
2022/03/10 05:29:18;;;;;;;;;;;4.60;27.10;;;;;;5094564;28;19924;-58
2022/03/10 05:31:46;;;;;;;;;;;4.60;27.30;;;;;;5094508;28;19989;-58
2022/03/10 05:34:12;;;;;;;;;;;4.50;27.20;;;;;;5094253;28;19966;-57
2022/03/10 05:36:39;;;;;;;;;;;4.50;26.50;;;;;;5094146;28;19920;-55
2022/03/10 05:39:06;;;;;;;;;;;4.50;27.00;;;;;;5094131;28;19931;-58
2022/03/10 05:41:33;;;;;;;;;;;4.50;27.10;;;;;;5074724;28;19924;-58
2022/03/10 05:43:59;;;;;;;;;;;4.50;27.20;;;;;;5074046;28;19966;-59
2022/03/10 05:46:26;;;;;;;;;;;4.50;27.00;;;;;;5073395;28;19954;-56
2022/03/10 05:48:54;;;;;;;;;;;4.50;27.40;;;;;;5073887;28;20428;-57
2022/03/10 05:51:21;;;;;;;;;;;4.50;27.10;;;;;;5072131;28;19924;-57
2022/03/10 05:53:48;;;;;;;;;;;4.50;27.30;;;;;;5073882;28;19920;-53
2022/03/10 05:56:15;;;;;;;;;;;4.60;27.90;;;;;;5074099;28;19924;-57
2022/03/10 05:58:41;;;;;;;;;;;4.50;28.10;;;;;;5073829;28;19920;-57
2022/03/10 06:01:07;;;;;;;;;;;4.60;28.20;;;;;;5073403;28;19969;-56
2022/03/10 06:03:34;;;;;;;;;;;4.60;27.70;;;;;;5073346;28;19973;-60
2022/03/10 06:06:02;;;;;;;;;;;4.50;27.50;;;;;;5073204;28;20439;-59
2022/03/10 06:08:29;;;;;;;;;;;4.50;28.20;;;;;;5073418;28;19966;-60
2022/03/10 06:10:56;;;;;;;;;;;4.50;27.90;;;;;;5073663;28;19920;-58
2022/03/10 06:13:22;;;;;;;;;;;4.50;28.70;;;;;;5072979;28;19920;-59
2022/03/10 06:15:48;;;;;;;;;;;4.50;28.20;;;;;;5073279;28;19929;-59
2022/03/10 06:18:16;;;;;;;;;;;4.50;28.20;;;;;;5072766;28;20283;-58
2022/03/10 06:20:42;;;;;;;;;;;4.60;28.60;;;;;;5071236;28;20428;-62
2022/03/10 06:23:10;;;;;;;;;;;4.70;29.40;;;;;;5073345;28;19974;-61
2022/03/10 06:25:36;;;;;;;;;;;4.80;30.00;;;;;;5072866;28;19930;-62
2022/03/10 06:28:04;;;;;;;;;;;4.90;30.50;;;;;;5072445;28;19925;-60
2022/03/10 06:30:31;;;;;;;;;;;4.90;31.30;;;;;;5072670;28;19921;-62
2022/03/10 06:32:57;;;;;;;;;;;5.00;32.10;;;;;;5072967;28;19926;-64
2022/03/10 06:35:24;;;;;;;;;;;5.00;32.10;;;;;;5064699;28;20508;-63
2022/03/10 06:37:51;;;;;;;;;;;5.10;32.50;;;;;;5072628;28;19966;-61
2022/03/10 06:40:19;;;;;;;;;;;5.10;32.60;;;;;;5072128;28;19924;-64
2022/03/10 06:42:45;;;;;;;;;;;5.20;33.30;;;;;;5071981;28;19926;-64
2022/03/10 06:45:12;;;;;;;;;;;5.30;34.10;;;;;;5072142;28;20386;-64
2022/03/10 06:47:40;;;;;;;;;;;5.30;34.20;;;;;;5071480;28;19924;-62
2022/03/10 06:50:07;;;;;;;;;;;5.40;34.80;;;;;;5072343;28;20018;-60
2022/03/10 06:52:34;;;;;;;;;;;5.50;36.20;;;;;;5071626;28;20340;-61
2022/03/10 06:55:00;;;;;;;;;;;5.50;36.00;;;;;;5072212;28;19974;-61
2022/03/10 06:57:28;;;;;;;;;;;5.60;36.80;;;;;;5071517;28;20272;-63
2022/03/10 06:59:54;;;;;;;;;;;5.70;36.70;;;;;;5071726;28;19973;-62
2022/03/10 07:02:21;;;;;;;;;;;5.80;37.70;;;;;;5071632;28;19920;-63
2022/03/10 07:04:47;;;;;;;;;;;5.90;39.10;;;;;;5071675;28;19924;-60
2022/03/10 07:07:14;;;;;;;;;;;6.00;39.40;;;;;;5071890;28;19990;-62
2022/03/10 07:09:44;;;;;;;;;;;6.00;40.30;;;;;;5072047;28;19974;-62
2022/03/10 07:12:10;;;;;;;;;;;6.10;40.80;;;;;;5071961;28;20343;-58
2022/03/10 07:14:38;;;;;;;;;;;6.20;41.50;;;;;;5071670;28;20007;-57
2022/03/10 07:17:05;;;;;;;;;;;6.30;42.50;;;;;;5071529;28;19924;-58
2022/03/10 07:19:31;;;;;;;;;;;6.40;42.70;;;;;;5071999;28;19973;-58
2022/03/10 07:21:58;;;;;;;;;;;6.50;43.60;;;;;;5071401;28;19920;-57
2022/03/10 07:24:25;;;;;;;;;;;6.60;44.60;;;;;;5072177;28;19924;-57
2022/03/10 07:26:52;;;;;;;;;;;6.70;45.20;;;;;;5071632;28;19921;-61
2022/03/10 07:29:18;;;;;;;;;;;6.80;46.60;;;;;;5072093;28;20351;-58
2022/03/10 07:31:46;;;;;;;;;;;6.90;46.40;;;;;;5071465;28;19974;-59
2022/03/10 07:34:13;;;;;;;;;;;7.00;48.10;;;;;;5071444;28;19962;-58
2022/03/10 07:36:40;;;;;;;;;;;7.10;49.10;;;;;;5071579;28;19921;-55
2022/03/10 07:39:07;;;;;;;;;;;7.10;48.80;;;;;;5071400;28;19924;-59
2022/03/10 07:41:33;;;;;;;;;;;7.30;50.80;;;;;;5071185;28;19921;-63
2022/03/10 07:44:00;;;;;;;;;;;7.40;51.70;;;;;;5071177;28;19920;-64
2022/03/10 07:46:26;;;;;;;;;;;7.50;52.30;;;;;;5071387;28;19966;-63
2022/03/10 07:48:54;;;;;;;;;;;7.60;53.30;;;;;;5071044;28;20380;-63
2022/03/10 07:51:21;;;;;;;;;;;7.70;53.80;;;;;;5071436;28;19925;-62
2022/03/10 07:53:47;;;;;;;;;;;7.80;54.40;;;;;;5071100;28;19924;-60
2022/03/10 07:56:14;;;;;;;;;;;7.90;56.00;;;;;;5071094;28;19981;-58
2022/03/10 07:58:40;;;;;;;;;;;8.00;56.30;;;;;;5071855;28;19920;-59
2022/03/10 08:01:07;;;;;;;;;;;8.10;58.00;;;;;;5071193;28;19970;-56
2022/03/10 08:03:33;;;;;;;;;;;8.20;59.00;;;;;;5071477;28;19974;-57
2022/03/10 08:06:02;;;;;;;;;;;8.30;59.00;;;;;;5070659;28;19920;-57
2022/03/10 08:08:28;;;;;;;;;;;8.40;60.80;;;;;;5071559;28;20282;-54
2022/03/10 08:10:55;;;;;;;;;;;8.40;60.10;;;;;;5071273;28;20014;-57
2022/03/10 08:13:26;;;;;;;;;;;8.60;63.10;;;;;;5071065;28;20294;-56
2022/03/10 08:15:52;;;;;;;;;;;8.60;63.70;;;;;;5074209;28;19920;-58
2022/03/10 08:18:19;;;;;;;;;;;8.70;64.40;;;;;;5074942;28;19928;-56
2022/03/10 08:20:45;;;;;;;;;;;8.90;66.00;;;;;;5074941;28;20311;-55
2022/03/10 08:23:13;;;;;;;;;;;9.00;67.40;;;;;;5074324;28;19928;-54
2022/03/10 08:25:40;;;;;;;;;;;9.10;67.30;;;;;;5074991;28;20286;-53
2022/03/10 08:28:07;;;;;;;;;;;9.20;69.30;;;;;;5074740;28;19973;-57
2022/03/10 08:30:33;;;;;;;;;;;9.40;65.90;;;;;;5074774;28;19927;-59
2022/03/10 08:33:00;;;;;;;;;;;9.50;67.60;;;;;;5074583;28;19977;-53
2022/03/10 08:35:27;;;;;;;;;;;9.60;67.90;;;;;;5074325;28;19921;-59
2022/03/10 08:37:53;;;;;;;;;;;9.80;72.70;;;;;;5074258;28;19927;-62
2022/03/10 08:40:21;;;;;;;;;;;9.90;72.40;;;;;;5074605;28;19920;-59
2022/03/10 08:42:49;;;;;;;;;;;10.00;70.90;;;;;;5074558;28;19985;-59
2022/03/10 08:45:15;;;;;;;;;;;10.20;74.30;;;;;;5074666;28;19982;-58
2022/03/10 08:47:42;;;;;;;;;;;10.40;76.80;;;;;;5074048;28;20002;-62
2022/03/10 08:50:10;;;;;;;;;;;10.60;79.00;;;;;;5074531;28;19920;-62
2022/03/10 08:52:37;;;;;;;;;;;10.60;78.40;;;;;;5073707;28;19974;-60
2022/03/10 08:55:05;;;;;;;;;;;10.70;81.00;;;;;;5074337;28;19920;-62
2022/03/10 08:57:34;;;;;;;;;;;11.00;84.70;;;;;;5074214;28;20011;-60
2022/03/10 09:00:00;;;;;;;;;;;11.00;83.00;;;;;;5074402;28;19920;-63
2022/03/10 09:02:27;;;;;;;;;;;11.20;84.50;;;;;;5073911;28;19924;-61
2022/03/10 09:04:53;;;;;;;;;;;11.20;85.20;;;;;;5073521;28;19921;-60
2022/03/10 09:07:20;;;;;;;;;;;11.30;85.10;;;;;;5074336;28;19924;-58
2022/03/10 09:09:46;;;;;;;;;;;11.40;87.40;;;;;;5074009;28;19920;-62
2022/03/10 09:12:13;;;;;;;;;;;11.50;89.00;;;;;;5074070;28;19924;-62
2022/03/10 09:14:41;;;;;;;;;;;11.70;90.10;;;;;;5073723;28;19924;-59
2022/03/10 09:17:07;;;;;;;;;;;11.70;90.30;;;;;;5073754;28;19931;-51
2022/03/10 09:19:34;;;;;;;;;;;11.90;91.50;;;;;;5073734;28;19920;-60
2022/03/10 09:22:01;;;;;;;;;;;12.00;92.80;;;;;;5073423;28;20533;-60
2022/03/10 09:24:30;;;;;;;;;;;12.20;93.80;;;;;;5081565;28;20377;-62
2022/03/10 09:26:56;;;;;;;;;;;12.30;92.80;;;;;;5093360;28;19919;-58
2022/03/10 09:29:23;;;;;;;;;;;12.40;92.10;;;;;;5094194;28;20290;-59
2022/03/10 09:31:52;;;;;;;;;;;12.30;92.40;;;;;;5093536;28;19927;-61
2022/03/10 09:34:18;;;;;;;;;;;12.40;92.30;;;;;;5093516;28;19924;-63
2022/03/10 09:36:45;;;;;;;;;;;12.40;91.80;;;;;;5093610;28;19973;-61
2022/03/10 09:39:11;;;;;;;;;;;12.40;91.50;;;;;;5094008;28;19920;-63
2022/03/10 09:41:39;;;;;;;;;;;12.40;91.00;;;;;;5093821;28;19927;-62
2022/03/10 09:44:10;;;;;;;;;;;12.40;91.60;;;;;;5092932;28;19942;-58
2022/03/10 09:46:36;;;;;;;;;;;12.50;92.20;;;;;;5093007;28;19955;-61
2022/03/10 09:49:04;;;;;;;;;;;12.60;92.00;;;;;;5094233;28;19924;-61
2022/03/10 09:51:31;;;;;;;;;;;12.60;91.40;;;;;;5094007;28;19973;-62
2022/03/10 09:53:58;;;;;;;;;;;12.70;91.70;;;;;;5093793;28;19920;-62
2022/03/10 09:56:24;;;;;;;;;;;12.80;91.70;;;;;;5093580;28;19920;-61
2022/03/10 09:58:51;;;;;;;;;;;12.80;92.90;;;;;;5094035;28;20344;-60
2022/03/10 10:01:17;;;;;;;;;;;12.90;92.80;;;;;;5093140;28;19953;-60
2022/03/10 10:03:44;;;;;;;;;;;13.00;93.10;;;;;;5093212;28;20351;-62
2022/03/10 10:06:11;;;;;;;;;;;13.30;99.90;;;;;;5092967;28;19950;-59
2022/03/10 10:08:41;;;;;;;;;;;13.30;94.20;;;;;;5093297;28;19920;-61
2022/03/10 10:11:08;;;;;;;;;;;13.30;93.70;;;;;;5093641;28;19924;-61
2022/03/10 10:13:37;;;;;;;;;;;13.40;94.60;;;;;;5092909;28;19920;-61
2022/03/10 10:16:05;;;;;;;;;;;13.50;94.10;;;;;;5093430;28;20022;-63
2022/03/10 10:18:32;;;;;;;;;;;13.70;95.70;;;;;;5093709;28;19920;-59
2022/03/10 10:20:59;;;;;;;;;;;13.70;95.50;;;;;;5094018;28;19932;-57
2022/03/10 10:23:28;;;;;;;;;;;13.80;95.60;;;;;;5092972;28;19920;-60
2022/03/10 10:25:56;;;;;;;;;;;14.00;96.90;;;;;;5092851;28;19924;-61
2022/03/10 10:28:27;;;;;;;;;;;14.20;97.90;;;;;;5092677;28;19920;-61
2022/03/10 10:30:58;;;;;;;;;;;14.20;97.10;;;;;;5092737;28;19926;-60
2022/03/10 10:33:25;;;;;;;;;;;14.30;97.90;;;;;;5092657;28;19969;-59
2022/03/10 10:35:52;;;;;;;;;;;14.30;97.30;;;;;;5092174;28;19927;-61
2022/03/10 10:38:30;;;;;;;;;;;14.30;98.00;;;;;;5091853;28;19931;-59
2022/03/10 10:41:15;;;;;;;;;;;14.40;97.10;;;;;;5092441;28;20374;-61
2022/03/10 10:43:42;;;;;;;;;;;14.50;96.60;;;;;;5092512;28;19920;-57
2022/03/10 10:46:10;;;;;;;;;;;14.50;96.60;;;;;;5092017;28;19919;-59
2022/03/10 10:48:45;;;;;;;;;;;14.50;96.20;;;;;;5092387;28;19919;-62
2022/03/10 10:51:12;;;;;;;;;;;14.60;96.50;;;;;;5092465;28;19920;-64
2022/03/10 10:53:40;;;;;;;;;;;14.50;95.70;;;;;;5091600;28;20458;-58
2022/03/10 10:56:07;;;;;;;;;;;14.60;95.10;;;;;;5091809;28;20170;-59
2022/03/10 10:58:34;;;;;;;;;;;14.60;95.70;;;;;;5091977;28;19942;-60
2022/03/10 11:01:00;;;;;;;;;;;14.70;96.70;;;;;;5085230;28;20297;-62
2022/03/10 11:03:28;;;;;;;;;;;14.90;97.10;;;;;;5072381;28;19966;-64
2022/03/10 11:05:55;;;;;;;;;;;14.80;97.20;;;;;;5090466;28;19924;-64
2022/03/10 11:08:23;;;;;;;;;;;14.80;96.50;;;;;;5072191;28;19951;-64
2022/03/10 11:10:51;;;;;;;;;;;14.80;95.70;;;;;;5071777;28;19924;-63
2022/03/10 11:13:17;;;;;;;;;;;14.90;96.70;;;;;;5071880;28;19924;-62
2022/03/10 11:15:45;;;;;;;;;;;14.90;96.90;;;;;;5071316;28;19920;-61
2022/03/10 11:18:12;;;;;;;;;;;15.00;96.90;;;;;;5071965;28;19954;-62
2022/03/10 11:20:39;;;;;;;;;;;15.20;98.40;;;;;;5072103;28;19924;-65
2022/03/10 11:23:11;;;;;;;;;;;15.30;97.30;;;;;;5071556;28;19921;-64
2022/03/10 11:25:42;;;;;;;;;;;15.20;95.40;;;;;;5071665;28;19920;-64
2022/03/10 11:28:12;;;;;;;;;;;15.20;95.90;;;;;;5070867;28;19920;-64
2022/03/10 11:30:39;;;;;;;;;;;15.00;94.60;;;;;;5071587;28;20348;-65
2022/03/10 11:33:09;;;;;;;;;;;14.90;93.80;;;;;;5071070;28;19990;-63
2022/03/10 11:35:38;;;;;;;;;;;14.90;93.10;;;;;;5071749;28;20367;-65
2022/03/10 11:38:05;;;;;;;;;;;15.00;93.80;;;;;;5071533;28;20317;-63
2022/03/10 11:40:42;;;;;;;;;;;15.10;94.90;;;;;;5071799;28;19974;-65
2022/03/10 11:43:09;;;;;;;;;;;15.30;94.70;;;;;;5071883;28;19920;-63
2022/03/10 11:45:37;;;;;;;;;;;15.30;95.40;;;;;;5071817;28;20472;-62
2022/03/10 11:48:22;;;;;;;;;;;15.50;95.70;;;;;;5071461;28;19924;-63
2022/03/10 11:50:49;;;;;;;;;;;15.40;94.70;;;;;;5075796;28;20294;-64
2022/03/10 11:53:15;;;;;;;;;;;15.30;94.20;;;;;;5077334;28;19924;-65
2022/03/10 11:55:43;;;;;;;;;;;15.20;92.50;;;;;;5075319;28;19924;-64
2022/03/10 11:58:10;;;;;;;;;;;15.30;92.70;;;;;;5075238;28;19920;-66
2022/03/10 12:00:48;;;;;;;;;;;15.40;93.10;;;;;;5075540;28;20449;-64
2022/03/10 12:03:19;;;;;;;;;;;15.50;95.10;;;;;;5074909;28;20370;-65
2022/03/10 12:05:53;;;;;;;;;;;15.60;95.00;;;;;;5075296;28;19926;-65
2022/03/10 12:08:20;;;;;;;;;;;15.70;94.90;;;;;;5074789;28;19947;-64
2022/03/10 12:10:47;;;;;;;;;;;15.80;95.50;;;;;;5093100;28;19966;-63
2022/03/10 12:13:30;;;;;;;;;;;15.80;96.10;;;;;;5095308;28;19942;-64
2022/03/10 12:15:58;;;;;;;;;;;16.00;95.80;;;;;;5095113;28;19927;-64
2022/03/10 12:18:26;;;;;;;;;;;15.90;93.90;;;;;;5095294;28;20588;-63
2022/03/10 12:20:54;;;;;;;;;;;15.70;93.10;;;;;;5094895;28;19927;-62
2022/03/10 12:23:23;;;;;;;;;;;15.70;92.50;;;;;;5095404;28;19970;-62
2022/03/10 12:25:52;;;;;;;;;;;15.60;93.30;;;;;;5094906;28;19920;-63
2022/03/10 12:28:24;;;;;;;;;;;15.70;93.60;;;;;;5095031;28;19935;-64
2022/03/10 12:30:53;;;;;;;;;;;15.80;93.70;;;;;;5095112;28;19926;-64
2022/03/10 12:33:22;;;;;;;;;;;15.70;92.80;;;;;;5094647;28;19920;-64
2022/03/10 12:35:54;;;;;;;;;;;15.80;93.30;;;;;;5095135;28;19930;-66
2022/03/10 12:38:33;;;;;;;;;;;15.80;93.10;;;;;;5094789;28;19920;-64
2022/03/10 12:41:00;;;;;;;;;;;15.90;93.70;;;;;;5095095;28;20335;-64
2022/03/10 12:43:27;;;;;;;;;;;16.00;95.30;;;;;;5094750;28;19924;-65
2022/03/10 12:45:53;;;;;;;;;;;16.20;95.90;;;;;;5094483;28;20443;-64
2022/03/10 12:48:24;;;;;;;;;;;16.20;95.70;;;;;;5094768;28;19969;-64
2022/03/10 12:50:51;;;;;;;;;;;16.20;96.50;;;;;;5095390;28;19943;-63
2022/03/10 12:53:18;;;;;;;;;;;16.30;96.30;;;;;;5094575;28;19972;-64
2022/03/10 12:55:45;;;;;;;;;;;16.40;96.50;;;;;;5094293;28;19923;-62
2022/03/10 12:58:11;;;;;;;;;;;16.40;96.90;;;;;;5094310;28;19927;-62
2022/03/10 13:00:38;;;;;;;;;;;16.50;96.80;;;;;;5094096;28;19958;-61
2022/03/10 13:03:05;;;;;;;;;;;16.30;99.90;;;;;;5094697;28;19920;-64
2022/03/10 13:05:35;;;;;;;;;;;16.20;94.90;;;;;;5084082;28;20267;-60
2022/03/10 13:08:05;;;;;;;;;;;16.30;95.40;;;;;;5073909;28;19921;-61
2022/03/10 13:10:31;;;;;;;;;;;16.30;95.60;;;;;;5074081;28;19921;-62
2022/03/10 13:12:58;;;;;;;;;;;16.30;96.10;;;;;;5073529;28;19920;-62
2022/03/10 13:15:25;;;;;;;;;;;16.30;95.80;;;;;;5088706;28;19924;-63
2022/03/10 13:17:53;;;;;;;;;;;16.30;94.40;;;;;;5075310;28;19965;-60
2022/03/10 13:20:21;;;;;;;;;;;16.30;93.90;;;;;;5102049;28;19923;-66
2022/03/10 13:22:50;;;;;;;;;;;16.10;93.40;;;;;;5114366;28;19965;-61
2022/03/10 13:25:18;;;;;;;;;;;16.20;99.90;;;;;;5081881;28;19966;-60
2022/03/10 13:27:45;;;;;;;;;;;16.30;95.70;;;;;;5075165;28;19924;-64
2022/03/10 13:30:22;;;;;;;;;;;16.30;94.90;;;;;;5075963;28;19971;-64
2022/03/10 13:32:50;;;;;;;;;;;16.40;94.40;;;;;;5073867;28;19920;-62
2022/03/10 13:35:20;;;;;;;;;;;16.30;94.40;;;;;;5073251;28;19946;-59
2022/03/10 13:37:47;;;;;;;;;;;16.40;94.80;;;;;;5073207;28;20374;-63
2022/03/10 13:40:15;;;;;;;;;;;16.50;95.70;;;;;;5073328;28;19924;-64
2022/03/10 13:42:45;;;;;;;;;;;16.50;95.70;;;;;;5073624;28;19928;-64
2022/03/10 13:45:12;;;;;;;;;;;16.50;94.90;;;;;;5073824;28;19924;-62
2022/03/10 13:47:52;;;;;;;;;;;16.50;94.30;;;;;;5072888;28;19924;-63
2022/03/10 13:50:20;;;;;;;;;;;16.50;94.40;;;;;;5073049;28;19932;-64
2022/03/10 13:52:46;;;;;;;;;;;16.60;94.90;;;;;;5073182;28;20015;-64
2022/03/10 13:55:14;;;;;;;;;;;16.50;92.80;;;;;;5073177;28;19982;-65
2022/03/10 13:57:43;;;;;;;;;;;16.50;92.20;;;;;;5072941;28;19920;-63
2022/03/10 14:00:10;;;;;;;;;;;16.50;92.20;;;;;;5072957;28;19920;-64
2022/03/10 14:02:36;;;;;;;;;;;16.40;91.90;;;;;;5073025;28;20301;-64
2022/03/10 14:05:11;;;;;;;;;;;16.30;90.60;;;;;;5072092;28;19921;-63
2022/03/10 14:07:37;;;;;;;;;;;16.30;90.40;;;;;;5073036;28;19920;-63
2022/03/10 14:10:04;;;;;;;;;;;16.30;91.30;;;;;;5072555;28;19921;-62
2022/03/10 14:12:32;;;;;;;;;;;16.40;91.80;;;;;;5072560;28;19962;-63
2022/03/10 14:14:59;;;;;;;;;;;16.50;91.80;;;;;;5072572;28;19924;-63
2022/03/10 14:17:39;;;;;;;;;;;16.50;91.30;;;;;;5072266;28;20397;-61
2022/03/10 14:20:06;;;;;;;;;;;16.50;90.50;;;;;;5072523;28;19926;-62
2022/03/10 14:22:34;;;;;;;;;;;16.40;90.50;;;;;;5072511;28;19920;-65
2022/03/10 14:25:01;;;;;;;;;;;16.30;89.40;;;;;;5072545;28;19920;-64
2022/03/10 14:27:30;;;;;;;;;;;16.30;90.30;;;;;;5074524;28;19931;-59
2022/03/10 14:30:01;;;;;;;;;;;16.20;88.70;;;;;;5085428;28;19974;-58